createdAt,value
2023-03-10T00:03:28.781Z,1.80
2023-03-10T00:08:36.169Z,1.27
2023-03-10T00:13:43.613Z,1.47
2023-03-10T00:18:50.876Z,2.00
2023-03-10T00:23:59.280Z,1.40
2023-03-10T00:29:06.893Z,2.77
2023-03-10T00:34:14.749Z,2.30
2023-03-10T00:39:21.591Z,2.97
2023-03-10T00:44:28.842Z,3.47
2023-03-10T00:49:35.620Z,1.87
2023-03-10T00:54:43.171Z,1.90
2023-03-10T00:59:54.162Z,2.47
2023-03-10T01:05:01.125Z,2.37
2023-03-10T01:10:10.028Z,1.83
2023-03-10T01:15:17.032Z,1.27
2023-03-10T01:20:24.034Z,2.37
2023-03-10T01:25:31.502Z,2.43
2023-03-10T01:30:39.725Z,0.90
2023-03-10T01:35:47.503Z,1.20
2023-03-10T01:40:54.566Z,1.50
2023-03-10T01:46:31.349Z,3.27
2023-03-10T01:51:41.476Z,1.83
2023-03-10T01:56:49.926Z,2.30
2023-03-10T02:01:58.746Z,1.97
2023-03-10T02:07:08.289Z,1.90
2023-03-10T02:12:17.217Z,2.43
2023-03-10T02:17:26.776Z,1.57
2023-03-10T02:22:34.918Z,4.80
2023-03-10T02:27:43.400Z,2.17
2023-03-10T02:32:54.828Z,3.37
2023-03-10T02:38:01.657Z,2.40
2023-03-10T02:43:29.584Z,2.20
2023-03-10T02:48:39.977Z,2.80
2023-03-10T02:53:46.919Z,2.10
2023-03-10T02:58:53.828Z,2.80
2023-03-10T03:04:01.456Z,5.47
2023-03-10T03:09:08.402Z,2.97
2023-03-10T03:14:16.178Z,4.90
2023-03-10T03:19:24.152Z,3.60
2023-03-10T03:24:32.319Z,3.83
2023-03-10T03:29:39.154Z,4.10
2023-03-10T03:34:45.855Z,4.90
2023-03-10T03:39:52.584Z,4.77
2023-03-10T03:44:59.274Z,6.40
2023-03-10T03:50:09.211Z,4.57
2023-03-10T03:55:18.854Z,4.57
2023-03-10T04:00:46.507Z,4.10
2023-03-10T04:05:53.374Z,5.80
2023-03-10T04:10:59.999Z,4.60
2023-03-10T04:16:07.269Z,6.40
2023-03-10T04:21:14.131Z,5.90
2023-03-10T04:26:21.037Z,6.47
2023-03-10T04:31:27.953Z,9.90
2023-03-10T04:36:34.788Z,33.30
2023-03-10T04:41:41.471Z,6.73
2023-03-10T04:46:48.191Z,6.23
2023-03-10T04:51:54.835Z,3.43
2023-03-10T04:57:01.533Z,5.43
2023-03-10T05:02:08.240Z,4.93
2023-03-10T05:07:14.874Z,6.33
2023-03-10T05:12:21.626Z,4.57
2023-03-10T05:17:29.808Z,7.23
2023-03-10T05:22:36.954Z,8.73
2023-03-10T05:27:44.593Z,6.40
2023-03-10T05:32:51.279Z,7.80
2023-03-10T05:37:57.940Z,6.30
2023-03-10T05:43:04.653Z,6.23
2023-03-10T05:48:11.318Z,7.23
2023-03-10T05:53:18.430Z,5.80
2023-03-10T05:58:26.665Z,6.30
2023-03-10T06:03:33.540Z,7.43
2023-03-10T06:08:40.272Z,7.10
2023-03-10T06:13:46.922Z,7.60
2023-03-10T06:18:58.160Z,9.03
2023-03-10T06:24:06.050Z,7.67
2023-03-10T06:29:12.786Z,9.07
2023-03-10T06:34:19.643Z,6.47
2023-03-10T06:39:27.957Z,6.60
2023-03-10T06:44:35.119Z,8.93
2023-03-10T06:49:42.029Z,10.03
2023-03-10T06:54:48.728Z,7.53
2023-03-10T06:59:55.532Z,8.07
2023-03-10T07:05:02.339Z,6.13
2023-03-10T07:10:10.410Z,6.70
2023-03-10T07:15:17.322Z,7.23
2023-03-10T07:20:24.706Z,8.73
2023-03-10T07:25:31.801Z,8.50
2023-03-10T07:30:39.190Z,9.37
2023-03-10T07:35:46.256Z,8.37
2023-03-10T07:40:52.906Z,8.90
2023-03-10T07:45:59.640Z,8.40
2023-03-10T07:51:06.870Z,8.37
2023-03-10T07:56:15.640Z,9.10
2023-03-10T08:01:23.678Z,10.03
2023-03-10T08:06:33.034Z,8.30
2023-03-10T08:11:39.662Z,9.13
2023-03-10T08:16:46.997Z,8.27
2023-03-10T08:21:56.059Z,9.27
2023-03-10T08:27:02.709Z,8.30
2023-03-10T08:32:09.766Z,8.87
2023-03-10T08:37:16.514Z,7.60
2023-03-10T08:42:23.667Z,5.40
2023-03-10T08:47:32.307Z,8.23
2023-03-10T08:52:38.782Z,9.03
2023-03-10T08:57:45.691Z,7.90
2023-03-10T09:02:52.459Z,9.23
2023-03-10T09:07:59.140Z,7.37
2023-03-10T09:13:13.684Z,9.13
2023-03-10T09:18:16.225Z,8.50
2023-03-10T09:23:22.901Z,8.87
2023-03-10T09:28:29.603Z,9.97
2023-03-10T09:33:36.982Z,6.23
2023-03-10T09:38:43.725Z,6.13
2023-03-10T09:44:30.246Z,6.20
2023-03-10T09:50:16.151Z,8.67
2023-03-10T09:55:26.854Z,8.33
2023-03-10T10:00:40.354Z,9.60
2023-03-10T10:05:49.447Z,6.33
2023-03-10T10:11:02.289Z,6.23
2023-03-10T10:16:34.548Z,8.37
2023-03-10T10:22:06.390Z,7.90
2023-03-10T10:27:14.670Z,7.60
2023-03-10T10:32:21.327Z,5.63
2023-03-10T10:37:41.373Z,8.80
2023-03-10T10:42:51.270Z,7.13
2023-03-10T10:47:58.408Z,5.60
2023-03-10T10:53:27.029Z,6.90
2023-03-10T10:58:41.940Z,8.80
2023-03-10T11:03:50.121Z,7.17
2023-03-10T11:09:10.936Z,6.07
2023-03-10T11:14:31.416Z,6.50
2023-03-10T11:20:26.189Z,7.67
2023-03-10T11:25:54.474Z,6.37
2023-03-10T11:31:29.426Z,5.40
2023-03-10T11:36:57.116Z,7.77
2023-03-10T11:42:09.505Z,6.83
2023-03-10T11:47:49.008Z,5.10
2023-03-10T11:53:01.291Z,5.47
2023-03-10T11:58:10.955Z,3.90
2023-03-10T12:03:24.929Z,5.20
2023-03-10T12:08:37.030Z,6.23
2023-03-10T12:13:48.420Z,7.13
2023-03-10T12:18:55.298Z,4.67
2023-03-10T12:24:05.345Z,5.43
2023-03-10T12:29:28.862Z,6.10
2023-03-10T12:34:35.636Z,7.03
2023-03-10T12:39:46.619Z,6.07
2023-03-10T12:45:30.128Z,7.40
2023-03-10T12:51:01.914Z,7.77
2023-03-10T12:56:19.177Z,7.80
2023-03-10T13:01:29.515Z,7.30
2023-03-10T13:06:40.357Z,7.47
2023-03-10T13:12:00.912Z,8.30
2023-03-10T13:17:09.865Z,5.67
2023-03-10T13:22:18.752Z,7.60
2023-03-10T13:27:29.053Z,5.70
2023-03-10T13:32:36.095Z,7.27
2023-03-10T13:37:42.801Z,7.33
2023-03-10T13:42:50.545Z,5.17
2023-03-10T13:47:57.386Z,5.87
2023-03-10T13:53:04.904Z,6.87
2023-03-10T13:58:14.702Z,7.00
2023-03-10T14:03:22.667Z,6.37
2023-03-10T14:08:34.021Z,5.07
2023-03-10T14:13:46.125Z,6.30
2023-03-10T14:18:52.745Z,5.03
2023-03-10T14:24:06.097Z,6.70
2023-03-10T14:29:17.576Z,7.60
2023-03-10T14:34:24.280Z,5.27
2023-03-10T14:39:30.978Z,4.40
2023-03-10T14:44:37.723Z,8.57
2023-03-10T14:49:46.315Z,6.40
2023-03-10T14:54:52.996Z,5.27
2023-03-10T14:59:59.737Z,10.03
2023-03-10T15:05:07.347Z,8.57
2023-03-10T15:10:15.653Z,8.90
2023-03-10T15:15:25.977Z,5.87
2023-03-10T15:20:32.641Z,6.67
2023-03-10T15:25:39.780Z,5.10
2023-03-10T15:30:47.321Z,4.20
2023-03-10T15:35:55.278Z,5.43
2023-03-10T15:41:04.118Z,7.17
2023-03-10T15:46:11.064Z,6.17
2023-03-10T15:51:18.294Z,5.77
2023-03-10T15:56:25.349Z,4.67
2023-03-10T16:01:32.119Z,5.93
2023-03-10T16:06:38.855Z,4.23
2023-03-10T16:11:45.559Z,4.33
2023-03-10T16:16:52.238Z,4.23
2023-03-10T16:21:59.022Z,3.90
2023-03-10T16:27:05.720Z,7.30
2023-03-10T16:32:12.647Z,7.97
2023-03-10T16:37:19.307Z,6.17
2023-03-10T16:42:31.152Z,6.20
2023-03-10T16:47:37.856Z,8.50
2023-03-10T16:52:44.856Z,4.90
2023-03-10T16:57:51.588Z,4.33
2023-03-10T17:02:58.170Z,4.97
2023-03-10T17:08:06.212Z,9.57
2023-03-10T17:13:12.887Z,7.40
2023-03-10T17:18:20.025Z,7.47
2023-03-10T17:23:26.698Z,6.77
2023-03-10T17:28:34.517Z,5.67
2023-03-10T17:33:42.548Z,4.50
2023-03-10T17:38:50.119Z,6.10
2023-03-10T17:43:57.641Z,5.97
2023-03-10T17:49:04.334Z,6.17
2023-03-10T17:54:16.384Z,5.53
2023-03-10T17:59:23.283Z,5.30
2023-03-10T18:04:30.821Z,5.00
2023-03-10T18:09:37.649Z,4.60
2023-03-10T18:14:45.058Z,4.97
2023-03-10T18:19:53.691Z,3.93
2023-03-10T18:25:04.008Z,4.00
2023-03-10T18:30:13.620Z,4.83
2023-03-10T18:35:20.815Z,5.97
2023-03-10T18:40:28.200Z,12.63
2023-03-10T18:45:35.352Z,4.47
2023-03-10T18:50:42.100Z,33.07
2023-03-10T18:55:49.206Z,70.33
2023-03-10T19:00:56.940Z,176.50
2023-03-10T19:06:03.775Z,105.60
2023-03-10T19:11:11.000Z,28.53
2023-03-10T19:16:17.901Z,16.77
2023-03-10T19:21:24.843Z,26.33
2023-03-10T19:26:33.333Z,18.10
2023-03-10T19:31:40.821Z,14.20
2023-03-10T19:36:47.762Z,3.67
2023-03-10T19:41:55.169Z,6.97
2023-03-10T19:47:02.418Z,3.33
2023-03-10T19:52:09.895Z,4.57
2023-03-10T19:57:16.616Z,2.40
2023-03-10T20:02:24.934Z,2.60
2023-03-10T20:07:31.944Z,2.83
2023-03-10T20:12:38.743Z,13.53
2023-03-10T20:17:45.591Z,3.50
2023-03-10T20:22:53.124Z,2.67
2023-03-10T20:27:59.975Z,3.43
2023-03-10T20:33:06.937Z,2.97
2023-03-10T20:38:13.916Z,2.87
2023-03-10T20:43:21.323Z,3.50
2023-03-10T20:48:28.241Z,2.33
2023-03-10T20:53:37.582Z,2.60
2023-03-10T20:58:44.800Z,3.67
2023-03-10T21:03:53.629Z,2.03
2023-03-10T21:09:02.054Z,2.30
2023-03-10T21:14:09.409Z,2.80
2023-03-10T21:19:16.693Z,1.40
2023-03-10T21:24:24.176Z,1.70
2023-03-10T21:29:31.052Z,1.03
2023-03-10T21:34:38.126Z,2.27
2023-03-10T21:39:48.339Z,3.20
2023-03-10T21:44:56.304Z,2.20
2023-03-10T21:50:03.720Z,1.97
2023-03-10T21:55:18.002Z,3.73
2023-03-10T22:05:31.666Z,2.60
2023-03-10T22:10:38.495Z,1.27
2023-03-10T22:15:45.698Z,1.87
2023-03-10T22:20:53.152Z,1.90
2023-03-10T22:26:00.016Z,0.40
2023-03-10T22:31:12.196Z,0.93
2023-03-10T22:36:19.242Z,2.20
2023-03-10T22:41:27.778Z,1.50
2023-03-10T22:46:34.896Z,7.60
2023-03-10T22:51:42.562Z,1.73
2023-03-10T22:56:49.823Z,14.73
2023-03-10T23:01:56.736Z,9.67
2023-03-10T23:07:03.835Z,16.57
2023-03-10T23:12:11.704Z,2.30
2023-03-10T23:17:18.405Z,3.43
2023-03-10T23:22:26.904Z,79.90
2023-03-10T23:27:33.578Z,2.73
2023-03-10T23:32:41.154Z,12.93
2023-03-10T23:37:48.789Z,5.50
2023-03-10T23:42:58.158Z,2.00
2023-03-10T23:48:06.773Z,1.70
2023-03-10T23:53:17.770Z,1.37
2023-03-10T23:58:25.081Z,1.63
